createdAt,value
2018-08-13T00:00:23.370Z,0
2018-08-13T00:00:49.534Z,0
2018-08-13T00:01:15.701Z,0
2018-08-13T00:01:41.835Z,0
2018-08-13T00:02:07.969Z,0
2018-08-13T00:02:34.140Z,0
2018-08-13T00:03:00.292Z,0
2018-08-13T00:03:26.424Z,0
2018-08-13T00:03:52.597Z,0
2018-08-13T00:04:18.730Z,0
2018-08-13T00:04:44.870Z,0
2018-08-13T00:05:10.997Z,0
2018-08-13T00:05:37.134Z,0
2018-08-13T00:06:03.273Z,0
2018-08-13T00:06:29.416Z,0
2018-08-13T00:06:55.548Z,0
2018-08-13T00:07:21.691Z,0
2018-08-13T00:07:47.834Z,0
2018-08-13T00:08:13.965Z,0
2018-08-13T00:08:40.102Z,0
2018-08-13T00:09:06.232Z,0
2018-08-13T00:09:32.371Z,0
2018-08-13T00:09:58.504Z,0
2018-08-13T00:10:24.639Z,0
2018-08-13T00:10:50.779Z,0
2018-08-13T00:11:16.917Z,0
2018-08-13T00:11:43.052Z,0
2018-08-13T00:12:09.217Z,0
2018-08-13T00:12:35.360Z,0
2018-08-13T00:13:01.503Z,0
2018-08-13T00:13:27.644Z,0
2018-08-13T00:13:53.776Z,0
2018-08-13T00:14:19.939Z,0
2018-08-13T00:14:46.078Z,0
2018-08-13T00:15:12.256Z,0
2018-08-13T00:15:41.434Z,0
2018-08-13T00:16:07.567Z,0
2018-08-13T00:16:33.708Z,0
2018-08-13T00:16:59.841Z,0
2018-08-13T00:17:26.018Z,0
2018-08-13T00:17:52.117Z,0
2018-08-13T00:18:18.250Z,0
2018-08-13T00:18:44.386Z,0
2018-08-13T00:19:10.524Z,0
2018-08-13T00:19:36.684Z,0
2018-08-13T00:20:02.842Z,0
2018-08-13T00:20:28.972Z,0
2018-08-13T00:20:55.106Z,0
2018-08-13T00:21:21.251Z,0
2018-08-13T00:21:47.423Z,0
2018-08-13T00:22:13.589Z,0
2018-08-13T00:22:39.721Z,0
2018-08-13T00:23:05.858Z,0
2018-08-13T00:23:32.023Z,0
2018-08-13T00:23:58.154Z,0
2018-08-13T00:24:24.313Z,0
2018-08-13T00:24:50.455Z,0
2018-08-13T00:25:16.613Z,0
2018-08-13T00:25:42.757Z,0
2018-08-13T00:26:08.888Z,0
2018-08-13T00:26:35.027Z,0
2018-08-13T00:27:01.191Z,0
2018-08-13T00:27:27.328Z,0
2018-08-13T00:27:53.464Z,0
2018-08-13T00:28:19.596Z,0
2018-08-13T00:28:45.734Z,0
2018-08-13T00:29:11.896Z,0
2018-08-13T00:29:38.032Z,0
2018-08-13T00:30:04.168Z,0
2018-08-13T00:30:30.308Z,0
2018-08-13T00:30:56.444Z,0
2018-08-13T00:31:22.582Z,0
2018-08-13T00:31:48.715Z,0
2018-08-13T00:32:14.858Z,0
2018-08-13T00:32:40.991Z,0
2018-08-13T00:33:07.136Z,0
2018-08-13T00:33:33.296Z,0
2018-08-13T00:33:59.434Z,0
2018-08-13T00:34:25.564Z,0
2018-08-13T00:34:51.727Z,0
2018-08-13T00:35:17.858Z,0
2018-08-13T00:35:44.002Z,0
2018-08-13T00:36:10.142Z,0
2018-08-13T00:36:36.277Z,0
2018-08-13T00:37:02.413Z,0
2018-08-13T00:37:28.566Z,0
2018-08-13T00:37:54.701Z,0
2018-08-13T00:38:20.858Z,0
2018-08-13T00:38:47.006Z,0
2018-08-13T00:39:13.138Z,0
2018-08-13T00:39:39.301Z,0
2018-08-13T00:40:05.442Z,0
2018-08-13T00:40:31.597Z,0
2018-08-13T00:40:57.735Z,0
2018-08-13T00:41:23.871Z,0
2018-08-13T00:41:50.010Z,0
2018-08-13T00:42:16.149Z,0
2018-08-13T00:42:42.358Z,0
2018-08-13T00:43:08.521Z,0
2018-08-13T00:43:34.671Z,0
2018-08-13T00:44:00.814Z,0
2018-08-13T00:44:26.973Z,0
2018-08-13T00:44:53.110Z,0
2018-08-13T00:45:19.255Z,0
2018-08-13T00:45:45.408Z,0
2018-08-13T00:46:11.545Z,0
2018-08-13T00:46:37.708Z,0
2018-08-13T00:47:03.842Z,0
2018-08-13T00:47:29.985Z,0
2018-08-13T00:47:56.119Z,0
2018-08-13T00:48:22.283Z,0
2018-08-13T00:48:48.442Z,0
2018-08-13T00:49:14.584Z,0
2018-08-13T00:49:40.722Z,0
2018-08-13T00:50:06.855Z,0
2018-08-13T00:50:32.990Z,0
2018-08-13T00:50:59.130Z,0
2018-08-13T00:51:25.287Z,0
2018-08-13T00:51:51.424Z,0
2018-08-13T00:52:17.557Z,0
2018-08-13T00:52:43.696Z,0
2018-08-13T00:53:09.829Z,0
2018-08-13T00:53:35.969Z,0
2018-08-13T00:54:02.108Z,0
2018-08-13T00:54:28.238Z,0
2018-08-13T00:54:54.381Z,0
2018-08-13T00:55:20.524Z,0
2018-08-13T00:55:46.680Z,0
2018-08-13T00:56:12.818Z,0
2018-08-13T00:56:38.942Z,0
2018-08-13T00:57:05.075Z,0
2018-08-13T00:57:31.239Z,0
2018-08-13T00:57:57.402Z,0
2018-08-13T00:58:23.536Z,0
2018-08-13T00:58:49.694Z,0
2018-08-13T00:59:15.849Z,0
2018-08-13T00:59:41.989Z,0
2018-08-13T01:00:08.128Z,0
2018-08-13T01:00:34.259Z,0
2018-08-13T01:01:00.418Z,0
2018-08-13T01:01:26.541Z,0
2018-08-13T01:01:52.674Z,0
2018-08-13T01:02:18.818Z,0
2018-08-13T01:02:44.965Z,0
2018-08-13T01:03:11.141Z,0
2018-08-13T01:03:37.286Z,0
2018-08-13T01:04:03.439Z,0
2018-08-13T01:04:29.570Z,0
2018-08-13T01:04:55.712Z,0
2018-08-13T01:05:21.852Z,0
2018-08-13T01:05:47.986Z,0
2018-08-13T01:06:14.121Z,0
2018-08-13T01:06:40.281Z,0
2018-08-13T01:07:06.414Z,0
2018-08-13T01:07:32.553Z,0
2018-08-13T01:07:58.691Z,0
2018-08-13T01:08:24.869Z,0
2018-08-13T01:08:51.008Z,0
2018-08-13T01:09:17.164Z,0
2018-08-13T01:09:43.306Z,0
2018-08-13T01:10:09.466Z,0
2018-08-13T01:10:35.597Z,0
2018-08-13T01:11:01.769Z,0
2018-08-13T01:11:27.897Z,0
2018-08-13T01:11:54.033Z,0
2018-08-13T01:12:20.171Z,0
2018-08-13T01:12:46.308Z,0
2018-08-13T01:13:12.447Z,0
2018-08-13T01:13:38.578Z,0
2018-08-13T01:14:04.747Z,0
2018-08-13T01:14:30.882Z,0
2018-08-13T01:14:57.013Z,0
2018-08-13T01:15:23.155Z,0
2018-08-13T01:15:49.296Z,0
2018-08-13T01:16:15.430Z,0
2018-08-13T01:16:41.594Z,0
2018-08-13T01:17:07.697Z,0
2018-08-13T01:17:33.842Z,0
2018-08-13T01:17:59.970Z,0
2018-08-13T01:18:26.114Z,0
2018-08-13T01:18:52.248Z,0
2018-08-13T01:19:18.383Z,0
2018-08-13T01:19:44.520Z,0
2018-08-13T01:20:10.662Z,0
2018-08-13T01:20:36.814Z,0
2018-08-13T01:21:02.952Z,0
2018-08-13T01:21:29.103Z,0
2018-08-13T01:21:55.238Z,0
2018-08-13T01:22:21.400Z,0
2018-08-13T01:22:47.531Z,0
2018-08-13T01:23:13.669Z,0
2018-08-13T01:23:39.800Z,0
2018-08-13T01:24:05.940Z,0
2018-08-13T01:24:32.069Z,0
2018-08-13T01:24:58.214Z,0
2018-08-13T01:25:24.362Z,0
2018-08-13T01:25:50.485Z,0
2018-08-13T01:26:16.645Z,0
2018-08-13T01:26:42.775Z,0
2018-08-13T01:27:08.907Z,0
2018-08-13T01:27:35.050Z,0
2018-08-13T01:28:01.209Z,0
2018-08-13T01:28:27.348Z,0
2018-08-13T01:28:53.502Z,0
2018-08-13T01:29:19.636Z,0
2018-08-13T01:29:45.769Z,0
2018-08-13T01:30:11.925Z,0
2018-08-13T01:30:38.061Z,0
2018-08-13T01:31:04.226Z,0
2018-08-13T01:31:30.366Z,0
2018-08-13T01:31:56.496Z,0
2018-08-13T01:32:22.638Z,0
2018-08-13T01:32:48.782Z,0
2018-08-13T01:33:14.911Z,0
2018-08-13T01:33:41.052Z,0
2018-08-13T01:34:07.188Z,0
2018-08-13T01:34:33.325Z,0
2018-08-13T01:34:59.496Z,0
2018-08-13T01:35:25.640Z,0
2018-08-13T01:35:51.780Z,0
2018-08-13T01:36:17.913Z,0
2018-08-13T01:36:44.085Z,0
2018-08-13T01:37:10.217Z,0
2018-08-13T01:37:36.375Z,0
2018-08-13T01:38:02.516Z,0
2018-08-13T01:38:28.650Z,0
2018-08-13T01:38:54.793Z,0
2018-08-13T01:39:20.929Z,0
2018-08-13T01:39:47.061Z,0
2018-08-13T01:40:13.207Z,0
2018-08-13T01:40:39.332Z,0
2018-08-13T01:41:05.469Z,0
2018-08-13T01:41:31.609Z,0
2018-08-13T01:41:57.775Z,0
2018-08-13T01:42:23.913Z,0
2018-08-13T01:42:50.065Z,0
2018-08-13T01:43:16.199Z,0
2018-08-13T01:43:42.343Z,0
2018-08-13T01:44:08.501Z,0
2018-08-13T01:44:34.633Z,0
2018-08-13T01:45:00.771Z,0
2018-08-13T01:45:26.904Z,0
2018-08-13T01:45:53.039Z,0
2018-08-13T01:46:19.182Z,0
2018-08-13T01:46:45.314Z,0
2018-08-13T01:47:11.450Z,0
2018-08-13T01:47:37.609Z,0
2018-08-13T01:48:03.743Z,0
2018-08-13T01:48:29.885Z,0
2018-08-13T01:48:56.020Z,0
2018-08-13T01:49:22.186Z,0
2018-08-13T01:49:48.349Z,0
2018-08-13T01:50:14.485Z,0
2018-08-13T01:50:40.625Z,0
2018-08-13T01:51:06.810Z,0
2018-08-13T01:51:32.949Z,0
2018-08-13T01:51:59.087Z,0
2018-08-13T01:52:25.222Z,0
2018-08-13T01:52:51.356Z,0
2018-08-13T01:53:17.512Z,0
2018-08-13T01:53:43.648Z,0
2018-08-13T01:54:09.808Z,0
2018-08-13T01:54:35.941Z,0
2018-08-13T01:55:02.079Z,0
2018-08-13T01:55:28.232Z,0
2018-08-13T01:55:54.376Z,0
2018-08-13T01:56:20.513Z,0
2018-08-13T01:56:46.650Z,0
2018-08-13T01:57:12.788Z,0
2018-08-13T01:57:38.928Z,0
2018-08-13T01:58:05.062Z,0
2018-08-13T01:58:31.201Z,0
2018-08-13T01:58:57.389Z,0
2018-08-13T01:59:23.523Z,0
2018-08-13T01:59:49.661Z,0
2018-08-13T02:00:15.822Z,0
2018-08-13T02:00:41.959Z,0
2018-08-13T02:01:08.094Z,0
2018-08-13T02:01:34.271Z,0
2018-08-13T02:02:00.385Z,0
2018-08-13T02:02:26.525Z,0
2018-08-13T02:02:52.660Z,0
2018-08-13T02:03:18.797Z,0
2018-08-13T02:03:44.960Z,0
2018-08-13T02:04:11.140Z,0
2018-08-13T02:04:37.283Z,0
2018-08-13T02:05:03.413Z,0
2018-08-13T02:05:29.548Z,0
2018-08-13T02:05:55.730Z,0
2018-08-13T02:06:21.887Z,0
2018-08-13T02:06:48.026Z,0
2018-08-13T02:07:14.159Z,0
2018-08-13T02:07:40.299Z,0
2018-08-13T02:08:06.432Z,0
2018-08-13T02:08:32.590Z,0
2018-08-13T02:08:58.719Z,0
2018-08-13T02:09:24.859Z,0
2018-08-13T02:09:50.995Z,0
2018-08-13T02:10:17.154Z,0
2018-08-13T02:10:43.293Z,0
2018-08-13T02:11:09.427Z,0
2018-08-13T02:11:35.557Z,0
2018-08-13T02:12:01.704Z,0
2018-08-13T02:12:27.840Z,0
2018-08-13T02:12:53.981Z,0
2018-08-13T02:13:20.115Z,0
2018-08-13T02:13:46.248Z,0
2018-08-13T02:14:12.387Z,0
2018-08-13T02:14:38.517Z,0
2018-08-13T02:15:04.653Z,0
2018-08-13T02:15:30.789Z,0
2018-08-13T02:15:56.929Z,0
2018-08-13T02:16:23.064Z,0
2018-08-13T02:16:49.203Z,0
2018-08-13T02:17:15.337Z,0
2018-08-13T02:17:41.475Z,0
2018-08-13T02:18:07.627Z,0
2018-08-13T02:18:33.764Z,0
2018-08-13T02:18:59.904Z,0
2018-08-13T02:19:26.046Z,0
2018-08-13T02:19:52.177Z,0
2018-08-13T02:20:18.320Z,0
2018-08-13T02:20:44.479Z,0
2018-08-13T02:21:10.619Z,0
2018-08-13T02:21:36.760Z,0
2018-08-13T02:22:02.900Z,0
2018-08-13T02:22:29.040Z,0
2018-08-13T02:22:55.195Z,0
2018-08-13T02:23:21.335Z,0
2018-08-13T02:23:47.473Z,0
2018-08-13T02:24:13.604Z,0
2018-08-13T02:24:39.745Z,0
2018-08-13T02:25:05.882Z,0
2018-08-13T02:25:32.022Z,0
2018-08-13T02:25:58.154Z,0
2018-08-13T02:26:24.295Z,0
2018-08-13T02:26:50.437Z,0
2018-08-13T02:27:16.569Z,0
2018-08-13T02:27:42.708Z,0
2018-08-13T02:28:08.839Z,0
2018-08-13T02:28:34.978Z,0
2018-08-13T02:29:01.119Z,0
2018-08-13T02:29:27.269Z,0
2018-08-13T02:29:53.401Z,0
2018-08-13T02:30:19.567Z,0
2018-08-13T02:30:45.701Z,0
2018-08-13T02:31:11.834Z,0
2018-08-13T02:31:38.021Z,0
2018-08-13T02:32:04.172Z,0
2018-08-13T02:32:30.329Z,0
2018-08-13T02:32:56.508Z,0
2018-08-13T02:33:22.678Z,0
2018-08-13T02:33:48.805Z,0
2018-08-13T02:34:14.951Z,0
2018-08-13T02:34:41.135Z,0
2018-08-13T02:35:07.273Z,0
2018-08-13T02:35:33.482Z,0
2018-08-13T02:35:59.623Z,0
2018-08-13T02:36:25.761Z,0
2018-08-13T02:36:51.921Z,0
2018-08-13T02:37:18.059Z,0
2018-08-13T02:37:44.195Z,0
2018-08-13T02:38:10.359Z,0
2018-08-13T02:38:36.513Z,0
2018-08-13T02:39:02.666Z,0
2018-08-13T02:39:28.806Z,0
2018-08-13T02:39:54.955Z,0
2018-08-13T02:40:21.117Z,0
2018-08-13T02:40:47.249Z,0
2018-08-13T02:41:13.389Z,0
2018-08-13T02:41:39.530Z,0
2018-08-13T02:42:05.699Z,0
2018-08-13T02:42:31.912Z,0
2018-08-13T02:42:58.043Z,0
2018-08-13T02:43:24.255Z,0
2018-08-13T02:43:50.409Z,0
2018-08-13T02:44:16.570Z,0
2018-08-13T02:44:42.743Z,0
2018-08-13T02:45:08.881Z,0
2018-08-13T02:45:35.082Z,0
2018-08-13T02:46:01.232Z,0
2018-08-13T02:46:27.395Z,0
2018-08-13T02:46:53.583Z,0
2018-08-13T02:47:19.750Z,0
2018-08-13T02:47:45.898Z,0
2018-08-13T02:48:12.038Z,0
2018-08-13T02:48:38.195Z,0
2018-08-13T02:49:04.352Z,0
2018-08-13T02:49:30.509Z,0
2018-08-13T02:49:56.649Z,0
2018-08-13T02:50:22.803Z,0
2018-08-13T02:50:48.943Z,0
2018-08-13T02:51:15.098Z,0
2018-08-13T02:51:41.277Z,0
2018-08-13T02:52:07.449Z,0
2018-08-13T02:52:33.601Z,0
2018-08-13T02:52:59.760Z,0
2018-08-13T02:53:25.945Z,0
2018-08-13T02:53:52.078Z,0
2018-08-13T02:54:18.217Z,0
2018-08-13T02:54:44.353Z,0
2018-08-13T02:55:10.542Z,0
2018-08-13T02:55:36.675Z,0
2018-08-13T02:56:02.838Z,0
2018-08-13T02:56:28.968Z,0
2018-08-13T02:56:55.112Z,0
2018-08-13T02:57:21.278Z,0
2018-08-13T02:57:47.435Z,0
2018-08-13T02:58:13.673Z,0
2018-08-13T02:58:39.758Z,0
2018-08-13T02:59:05.891Z,0
2018-08-13T02:59:32.024Z,0
2018-08-13T02:59:58.196Z,0
2018-08-13T03:00:24.299Z,0
2018-08-13T03:00:50.462Z,0
2018-08-13T03:01:16.624Z,0
2018-08-13T03:01:42.754Z,0
2018-08-13T03:02:08.906Z,0
2018-08-13T03:02:35.077Z,0
2018-08-13T03:03:01.215Z,0
2018-08-13T03:03:27.348Z,0
2018-08-13T03:03:53.515Z,0
2018-08-13T03:04:19.688Z,0
2018-08-13T03:04:45.877Z,0
2018-08-13T03:05:11.990Z,0
2018-08-13T03:05:38.198Z,0
2018-08-13T03:06:04.352Z,0
2018-08-13T03:06:30.516Z,0
2018-08-13T03:06:56.670Z,0
2018-08-13T03:07:22.810Z,0
2018-08-13T03:07:48.940Z,0
2018-08-13T03:08:15.081Z,0
2018-08-13T03:08:41.227Z,0
2018-08-13T03:09:07.369Z,0
2018-08-13T03:09:33.553Z,0
2018-08-13T03:09:59.712Z,0
2018-08-13T03:10:25.848Z,0
2018-08-13T03:10:51.988Z,0
2018-08-13T03:11:18.173Z,0
2018-08-13T03:11:44.330Z,0
2018-08-13T03:12:10.461Z,0
2018-08-13T03:12:36.595Z,0
2018-08-13T03:13:02.731Z,0
2018-08-13T03:13:28.863Z,0
2018-08-13T03:13:55.005Z,0
2018-08-13T03:14:21.137Z,0
2018-08-13T03:14:47.275Z,0
2018-08-13T03:15:13.483Z,0
2018-08-13T03:15:39.640Z,0
2018-08-13T03:16:05.801Z,0
2018-08-13T03:16:31.963Z,0
2018-08-13T03:16:58.072Z,0
2018-08-13T03:17:24.204Z,0
2018-08-13T03:17:50.383Z,0
2018-08-13T03:18:16.520Z,0
2018-08-13T03:18:42.673Z,0
2018-08-13T03:19:08.810Z,0
2018-08-13T03:19:34.975Z,0
2018-08-13T03:20:01.111Z,0
2018-08-13T03:20:27.270Z,0
2018-08-13T03:20:53.418Z,0
2018-08-13T03:21:19.555Z,0
2018-08-13T03:21:45.690Z,0
2018-08-13T03:22:11.829Z,0
2018-08-13T03:22:38.011Z,0
2018-08-13T03:23:04.169Z,0
2018-08-13T03:23:30.336Z,0
2018-08-13T03:23:56.499Z,0
2018-08-13T03:24:22.702Z,0
2018-08-13T03:24:48.880Z,0
2018-08-13T03:25:15.049Z,0
2018-08-13T03:25:41.206Z,0
2018-08-13T03:26:07.363Z,0
2018-08-13T03:26:33.531Z,0
2018-08-13T03:26:59.667Z,0
2018-08-13T03:27:25.871Z,0
2018-08-13T03:27:52.033Z,0
2018-08-13T03:28:18.168Z,0
2018-08-13T03:28:44.305Z,0
2018-08-13T03:29:10.471Z,0
2018-08-13T03:29:36.605Z,0
2018-08-13T03:30:02.758Z,0
2018-08-13T03:30:28.971Z,0
2018-08-13T03:30:55.236Z,0
2018-08-13T03:31:21.414Z,0
2018-08-13T03:31:47.588Z,0
2018-08-13T03:32:13.771Z,0
2018-08-13T03:32:39.911Z,0
2018-08-13T03:33:06.041Z,0
2018-08-13T03:33:32.270Z,0
2018-08-13T03:33:58.336Z,0
2018-08-13T03:34:24.484Z,0
2018-08-13T03:34:50.624Z,0
2018-08-13T03:35:16.787Z,0
2018-08-13T03:35:42.927Z,0
2018-08-13T03:36:09.066Z,0
2018-08-13T03:36:35.208Z,0
2018-08-13T03:37:01.345Z,4
2018-08-13T03:37:27.485Z,4
2018-08-13T03:37:53.611Z,4
2018-08-13T03:38:19.752Z,4
2018-08-13T03:38:45.895Z,4
2018-08-13T03:39:12.025Z,4
2018-08-13T03:39:38.168Z,4
2018-08-13T03:40:04.295Z,0
2018-08-13T03:40:30.431Z,0
2018-08-13T03:40:56.571Z,4
2018-08-13T03:41:22.709Z,4
2018-08-13T03:41:48.844Z,4
2018-08-13T03:42:14.972Z,4
2018-08-13T03:42:41.109Z,4
2018-08-13T03:43:07.240Z,8
2018-08-13T03:43:33.376Z,8
2018-08-13T03:43:59.515Z,4
2018-08-13T03:44:25.653Z,4
2018-08-13T03:44:51.799Z,4
2018-08-13T03:45:17.930Z,8
2018-08-13T03:45:44.058Z,8
2018-08-13T03:46:10.202Z,8
2018-08-13T03:46:36.337Z,4
2018-08-13T03:47:02.498Z,8
2018-08-13T03:47:28.627Z,8
2018-08-13T03:47:54.763Z,8
2018-08-13T03:48:20.901Z,8
2018-08-13T03:48:47.059Z,8
2018-08-13T03:49:13.202Z,12
2018-08-13T03:49:39.360Z,12
2018-08-13T03:50:05.487Z,12
2018-08-13T03:50:31.656Z,12
2018-08-13T03:50:57.815Z,12
2018-08-13T03:51:23.944Z,12
2018-08-13T03:51:50.082Z,16
2018-08-13T03:52:16.219Z,16
2018-08-13T03:52:42.354Z,16
2018-08-13T03:53:08.488Z,16
2018-08-13T03:53:34.628Z,16
2018-08-13T03:54:00.785Z,16
2018-08-13T03:54:26.921Z,20
2018-08-13T03:54:53.062Z,20
2018-08-13T03:55:19.193Z,20
2018-08-13T03:55:45.333Z,20
2018-08-13T03:56:11.498Z,24
2018-08-13T03:56:37.635Z,28
2018-08-13T03:57:03.763Z,28
2018-08-13T03:57:29.907Z,32
2018-08-13T03:57:56.094Z,36
2018-08-13T03:58:22.246Z,36
2018-08-13T03:58:48.383Z,40
2018-08-13T03:59:14.517Z,44
2018-08-13T03:59:40.647Z,48
2018-08-13T04:00:06.783Z,52
2018-08-13T04:00:32.929Z,52
2018-08-13T04:00:59.063Z,56
2018-08-13T04:01:25.193Z,64
2018-08-13T04:01:51.328Z,68
2018-08-13T04:02:17.476Z,72
2018-08-13T04:02:43.611Z,76
2018-08-13T04:03:09.744Z,88
2018-08-13T04:03:35.884Z,88
2018-08-13T04:04:02.018Z,96
2018-08-13T04:04:28.158Z,100
2018-08-13T04:04:54.315Z,108
2018-08-13T04:05:20.477Z,112
2018-08-13T04:05:46.619Z,112
2018-08-13T04:06:12.759Z,116
2018-08-13T04:06:38.909Z,116
2018-08-13T04:07:05.077Z,116
2018-08-13T04:07:31.216Z,120
2018-08-13T04:07:57.355Z,124
2018-08-13T04:08:23.496Z,128
2018-08-13T04:08:49.675Z,132
2018-08-13T04:09:15.814Z,136
2018-08-13T04:09:41.953Z,140
2018-08-13T04:10:08.131Z,144
2018-08-13T04:10:34.270Z,152
2018-08-13T04:11:00.402Z,156
2018-08-13T04:11:26.564Z,164
2018-08-13T04:11:52.709Z,168
2018-08-13T04:12:18.844Z,176
2018-08-13T04:12:44.980Z,180
2018-08-13T04:13:11.134Z,184
2018-08-13T04:13:37.300Z,184
2018-08-13T04:14:03.462Z,192
2018-08-13T04:14:29.604Z,192
2018-08-13T04:14:55.733Z,196
2018-08-13T04:15:21.867Z,200
2018-08-13T04:15:48.012Z,200
2018-08-13T04:16:14.144Z,204
2018-08-13T04:16:40.283Z,204
2018-08-13T04:17:06.423Z,204
2018-08-13T04:17:32.553Z,208
2018-08-13T04:17:58.695Z,212
2018-08-13T04:18:24.835Z,216
2018-08-13T04:18:50.971Z,224
2018-08-13T04:19:17.102Z,232
2018-08-13T04:19:43.238Z,240
2018-08-13T04:20:09.372Z,252
2018-08-13T04:20:35.512Z,264
2018-08-13T04:21:01.650Z,276
2018-08-13T04:21:27.780Z,292
2018-08-13T04:21:53.922Z,308
2018-08-13T04:22:20.083Z,324
2018-08-13T04:22:46.244Z,340
2018-08-13T04:23:12.375Z,352
2018-08-13T04:23:38.513Z,368
2018-08-13T04:24:04.648Z,384
2018-08-13T04:24:30.784Z,400
2018-08-13T04:24:56.922Z,416
2018-08-13T04:25:23.057Z,432
2018-08-13T04:25:49.199Z,452
2018-08-13T04:26:15.332Z,472
2018-08-13T04:26:41.516Z,496
2018-08-13T04:27:07.670Z,524
2018-08-13T04:27:33.821Z,552
2018-08-13T04:27:59.960Z,584
2018-08-13T04:28:26.095Z,616
2018-08-13T04:28:52.227Z,652
2018-08-13T04:29:18.364Z,692
2018-08-13T04:29:44.502Z,732
2018-08-13T04:30:10.637Z,772
2018-08-13T04:30:36.775Z,812
2018-08-13T04:31:02.939Z,852
2018-08-13T04:31:29.074Z,892
2018-08-13T04:31:55.217Z,936
2018-08-13T04:32:21.351Z,988
2018-08-13T04:32:47.555Z,1048
2018-08-13T04:33:13.650Z,1112
2018-08-13T04:33:39.785Z,1192
2018-08-13T04:34:05.920Z,1280
2018-08-13T04:34:32.071Z,1380
2018-08-13T04:34:58.209Z,1484
2018-08-13T04:35:24.345Z,1600
2018-08-13T04:35:50.504Z,1716
2018-08-13T04:36:16.642Z,1840
2018-08-13T04:36:42.785Z,1960
2018-08-13T04:37:08.944Z,2080
2018-08-13T04:37:35.100Z,2192
2018-08-13T04:38:01.236Z,2300
2018-08-13T04:38:27.371Z,2412
2018-08-13T04:38:53.514Z,2516
2018-08-13T04:39:19.651Z,2616
2018-08-13T04:39:45.785Z,2700
2018-08-13T04:40:11.920Z,2772
2018-08-13T04:40:38.084Z,2848
2018-08-13T04:41:04.242Z,2932
2018-08-13T04:41:30.379Z,3036
2018-08-13T04:41:56.521Z,3148
2018-08-13T04:42:22.649Z,3248
2018-08-13T04:42:48.789Z,3332
2018-08-13T04:43:14.921Z,3392
2018-08-13T04:43:41.066Z,3436
2018-08-13T04:44:07.203Z,3472
2018-08-13T04:44:33.357Z,3512
2018-08-13T04:44:59.502Z,3536
2018-08-13T04:45:25.639Z,3544
2018-08-13T04:45:51.790Z,3532
2018-08-13T04:46:17.950Z,3496
2018-08-13T04:46:44.092Z,3432
2018-08-13T04:47:10.219Z,3340
2018-08-13T04:47:36.363Z,3212
2018-08-13T04:48:02.517Z,3092
2018-08-13T04:48:28.652Z,2992
2018-08-13T04:48:54.792Z,2932
2018-08-13T04:49:20.928Z,2900
2018-08-13T04:49:47.069Z,2872
2018-08-13T04:50:13.232Z,2844
2018-08-13T04:50:39.385Z,2812
2018-08-13T04:51:05.525Z,2780
2018-08-13T04:51:31.652Z,2752
2018-08-13T04:51:57.794Z,2716
2018-08-13T04:52:23.952Z,2668
2018-08-13T04:52:50.091Z,2592
2018-08-13T04:53:16.244Z,2496
2018-08-13T04:53:42.378Z,2384
2018-08-13T04:54:08.523Z,2340
2018-08-13T04:54:34.655Z,2220
2018-08-13T04:55:00.796Z,2108
2018-08-13T04:55:26.953Z,2020
2018-08-13T04:55:53.118Z,1952
2018-08-13T04:56:19.259Z,1896
2018-08-13T04:56:45.394Z,1852
2018-08-13T04:57:11.526Z,1820
2018-08-13T04:57:37.686Z,1780
2018-08-13T04:58:03.814Z,1716
2018-08-13T04:58:29.997Z,1632
2018-08-13T04:58:56.173Z,1528
2018-08-13T04:59:22.276Z,1428
2018-08-13T04:59:48.422Z,1336
2018-08-13T05:00:14.599Z,1264
2018-08-13T05:00:40.756Z,1212
2018-08-13T05:01:06.895Z,1176
2018-08-13T05:01:33.029Z,1152
2018-08-13T05:01:59.166Z,1136
2018-08-13T05:02:25.302Z,1124
2018-08-13T05:02:51.459Z,1112
2018-08-13T05:03:17.599Z,1100
2018-08-13T05:03:43.794Z,1084
2018-08-13T05:04:09.953Z,1060
2018-08-13T05:04:36.088Z,1044
2018-08-13T05:05:02.222Z,1024
2018-08-13T05:05:28.364Z,1012
2018-08-13T05:05:54.502Z,1004
2018-08-13T05:06:20.635Z,1000
2018-08-13T05:06:46.769Z,1000
2018-08-13T05:07:12.960Z,1008
2018-08-13T05:07:39.072Z,1020
2018-08-13T05:08:05.209Z,1036
2018-08-13T05:08:31.350Z,1060
2018-08-13T05:08:57.514Z,1088
2018-08-13T05:09:23.635Z,1132
2018-08-13T05:09:49.770Z,1184
2018-08-13T05:10:15.909Z,1248
2018-08-13T05:10:42.121Z,1324
2018-08-13T05:11:08.263Z,1404
2018-08-13T05:11:34.397Z,1488
2018-08-13T05:12:00.536Z,1572
2018-08-13T05:12:26.689Z,1660
2018-08-13T05:12:52.826Z,1740
2018-08-13T05:13:18.964Z,1824
2018-08-13T05:13:45.121Z,1908
2018-08-13T05:14:11.260Z,1988
2018-08-13T05:14:37.396Z,2072
2018-08-13T05:15:03.557Z,2152
2018-08-13T05:15:29.698Z,2232
2018-08-13T05:15:55.836Z,2304
2018-08-13T05:16:21.973Z,2352
2018-08-13T05:16:48.109Z,2384
2018-08-13T05:17:14.246Z,2396
2018-08-13T05:17:40.381Z,2396
2018-08-13T05:18:06.538Z,2400
2018-08-13T05:18:32.681Z,2408
2018-08-13T05:18:58.816Z,2428
2018-08-13T05:19:24.951Z,2460
2018-08-13T05:19:51.078Z,2504
2018-08-13T05:20:17.217Z,2552
2018-08-13T05:20:43.377Z,2608
2018-08-13T05:21:09.544Z,2656
2018-08-13T05:21:35.681Z,2704
2018-08-13T05:22:01.816Z,2752
2018-08-13T05:22:27.957Z,2792
2018-08-13T05:22:54.133Z,2832
2018-08-13T05:23:20.265Z,2872
2018-08-13T05:23:46.433Z,2908
2018-08-13T05:24:12.570Z,2940
2018-08-13T05:24:38.705Z,2976
2018-08-13T05:25:04.864Z,3028
2018-08-13T05:25:30.999Z,3092
2018-08-13T05:25:57.134Z,3172
2018-08-13T05:26:23.272Z,3272
2018-08-13T05:26:49.425Z,3376
2018-08-13T05:27:15.588Z,3488
2018-08-13T05:27:41.718Z,3592
2018-08-13T05:28:07.850Z,3668
2018-08-13T05:28:33.999Z,3732
2018-08-13T05:29:00.152Z,3760
2018-08-13T05:29:26.293Z,3772
2018-08-13T05:29:52.489Z,3756
2018-08-13T05:30:18.663Z,3732
2018-08-13T05:30:44.759Z,3696
2018-08-13T05:31:10.895Z,3652
2018-08-13T05:31:37.032Z,3608
2018-08-13T05:32:03.171Z,3556
2018-08-13T05:32:29.308Z,3516
2018-08-13T05:32:55.468Z,3480
2018-08-13T05:33:21.623Z,3452
2018-08-13T05:33:47.759Z,3424
2018-08-13T05:34:13.918Z,3400
2018-08-13T05:34:40.087Z,3376
2018-08-13T05:35:06.209Z,3352
2018-08-13T05:35:32.347Z,3328
2018-08-13T05:35:58.500Z,3308
2018-08-13T05:36:24.638Z,3280
2018-08-13T05:36:50.796Z,3252
2018-08-13T05:37:16.959Z,3224
2018-08-13T05:37:43.096Z,3192
2018-08-13T05:38:09.285Z,3168
2018-08-13T05:38:35.384Z,3144
2018-08-13T05:39:01.518Z,3132
2018-08-13T05:39:27.674Z,3112
2018-08-13T05:39:53.804Z,3104
2018-08-13T05:40:19.942Z,3104
2018-08-13T05:40:46.082Z,3104
2018-08-13T05:41:12.216Z,3108
2018-08-13T05:41:38.349Z,3124
2018-08-13T05:42:04.491Z,3144
2018-08-13T05:42:30.647Z,3160
2018-08-13T05:42:56.781Z,3184
2018-08-13T05:43:22.911Z,3200
2018-08-13T05:43:49.047Z,3216
2018-08-13T05:44:15.212Z,3224
2018-08-13T05:44:41.345Z,3228
2018-08-13T05:45:07.480Z,3228
2018-08-13T05:45:33.608Z,3232
2018-08-13T05:45:59.741Z,3240
2018-08-13T05:46:25.884Z,3248
2018-08-13T05:46:52.017Z,3256
2018-08-13T05:47:18.150Z,3280
2018-08-13T05:47:44.308Z,3308
2018-08-13T05:48:10.460Z,3348
2018-08-13T05:48:36.596Z,3396
2018-08-13T05:49:02.730Z,3460
2018-08-13T05:49:28.877Z,3536
2018-08-13T05:49:55.011Z,3620
2018-08-13T05:50:21.152Z,3704
2018-08-13T05:50:47.278Z,3792
2018-08-13T05:51:13.436Z,3872
2018-08-13T05:51:39.565Z,3940
2018-08-13T05:52:05.701Z,4004
2018-08-13T05:52:31.836Z,4048
2018-08-13T05:52:57.988Z,4088
2018-08-13T05:53:24.109Z,4128
2018-08-13T05:53:50.243Z,4160
2018-08-13T05:54:16.399Z,4192
2018-08-13T05:54:42.536Z,4220
2018-08-13T05:55:08.671Z,4248
2018-08-13T05:55:34.862Z,4272
2018-08-13T05:56:00.995Z,4292
2018-08-13T05:56:27.125Z,4304
2018-08-13T05:56:53.290Z,4308
2018-08-13T05:57:19.431Z,4304
2018-08-13T05:57:45.559Z,4288
2018-08-13T05:58:11.717Z,4272
2018-08-13T05:58:37.861Z,4252
2018-08-13T05:59:03.997Z,4228
2018-08-13T05:59:30.128Z,4208
2018-08-13T05:59:56.262Z,4188
2018-08-13T06:00:22.420Z,4168
2018-08-13T06:00:48.552Z,4144
2018-08-13T06:01:14.694Z,4124
2018-08-13T06:01:40.831Z,4096
2018-08-13T06:02:06.969Z,4068
2018-08-13T06:02:33.099Z,4036
2018-08-13T06:02:59.260Z,4004
2018-08-13T06:03:25.418Z,3976
2018-08-13T06:03:51.559Z,3952
2018-08-13T06:04:17.721Z,3948
2018-08-13T06:04:43.849Z,3964
2018-08-13T06:05:09.991Z,3996
2018-08-13T06:05:36.127Z,4048
2018-08-13T06:06:02.255Z,4120
2018-08-13T06:06:28.393Z,4200
2018-08-13T06:06:54.532Z,4288
2018-08-13T06:07:20.693Z,4368
2018-08-13T06:07:46.832Z,4448
2018-08-13T06:08:12.959Z,4520
2018-08-13T06:08:39.097Z,4588
2018-08-13T06:09:05.256Z,4636
2018-08-13T06:09:31.395Z,4676
2018-08-13T06:09:57.528Z,4704
2018-08-13T06:10:23.664Z,4720
2018-08-13T06:10:49.795Z,4728
2018-08-13T06:11:15.965Z,4732
2018-08-13T06:11:42.092Z,4732
2018-08-13T06:12:08.227Z,4716
2018-08-13T06:12:34.356Z,4712
2018-08-13T06:13:00.492Z,4696